createdAt,value
2019-05-30T00:01:40.265Z,74.54
2019-05-30T00:04:07.967Z,74.73
2019-05-30T00:06:35.236Z,74.89
2019-05-30T00:09:04.640Z,75.09
2019-05-30T00:11:31.847Z,74.69
2019-05-30T00:14:00.663Z,75.05
2019-05-30T00:16:27.919Z,75.68
2019-05-30T00:18:55.103Z,75.78
2019-05-30T00:21:22.287Z,75.97
2019-05-30T00:23:49.521Z,75.91
2019-05-30T00:26:17.401Z,75.98
2019-05-30T00:28:44.947Z,75.90
2019-05-30T00:31:12.428Z,76.24
2019-05-30T00:33:39.615Z,76.43
2019-05-30T00:36:06.781Z,76.85
2019-05-30T00:38:33.976Z,77.21
2019-05-30T00:41:02.099Z,77.57
2019-05-30T00:43:29.380Z,78.22
2019-05-30T00:45:56.467Z,78.55
2019-05-30T00:48:24.037Z,78.80
2019-05-30T00:50:51.133Z,78.51
2019-05-30T00:53:18.443Z,78.40
2019-05-30T00:55:45.679Z,78.78
2019-05-30T00:58:12.827Z,79.13
2019-05-30T01:00:43.855Z,79.58
2019-05-30T01:03:09.399Z,80.10
2019-05-30T01:05:36.511Z,80.33
2019-05-30T01:08:03.667Z,79.50
2019-05-30T01:10:30.879Z,79.19
2019-05-30T01:12:59.755Z,78.95
2019-05-30T01:15:27.278Z,79.07
2019-05-30T01:17:54.369Z,78.80
2019-05-30T01:20:21.519Z,78.54
2019-05-30T01:22:48.666Z,78.16
2019-05-30T01:25:16.086Z,78.06
2019-05-30T01:27:43.156Z,78.22
2019-05-30T01:30:10.926Z,78.32
2019-05-30T01:32:38.399Z,78.23
2019-05-30T01:35:06.174Z,77.93
2019-05-30T01:37:33.309Z,76.72
2019-05-30T01:40:01.799Z,76.19
2019-05-30T01:42:29.093Z,76.19
2019-05-30T01:44:57.959Z,76.29
2019-05-30T01:47:25.231Z,76.41
2019-05-30T01:49:52.415Z,76.65
2019-05-30T01:52:19.851Z,76.71
2019-05-30T01:54:47.497Z,76.87
2019-05-30T01:57:14.664Z,77.18
2019-05-30T01:59:41.974Z,77.21
2019-05-30T02:02:09.656Z,77.26
2019-05-30T02:04:37.146Z,77.38
2019-05-30T02:07:05.167Z,77.92
2019-05-30T02:09:32.424Z,77.96
2019-05-30T02:11:59.589Z,78.21
2019-05-30T02:14:26.670Z,77.88
2019-05-30T02:16:53.989Z,77.39
2019-05-30T02:19:21.153Z,77.04
2019-05-30T02:21:48.387Z,77.52
2019-05-30T02:24:15.939Z,77.89
2019-05-30T02:26:43.170Z,78.13
2019-05-30T02:29:10.497Z,78.48
2019-05-30T02:31:39.732Z,78.59
2019-05-30T02:34:07.628Z,78.43
2019-05-30T02:36:36.009Z,78.33
2019-05-30T02:39:07.221Z,78.05
2019-05-30T02:41:34.311Z,78.33
2019-05-30T02:44:02.908Z,78.21
2019-05-30T02:46:30.250Z,78.26
2019-05-30T02:48:59.571Z,78.17
2019-05-30T02:51:26.424Z,78.21
2019-05-30T02:53:53.666Z,78.62
2019-05-30T02:56:20.722Z,79.12
2019-05-30T02:58:47.884Z,79.29
2019-05-30T03:01:15.025Z,79.94
2019-05-30T03:03:42.451Z,80.11
2019-05-30T03:06:13.105Z,80.47
2019-05-30T03:08:38.730Z,80.96
2019-05-30T03:11:07.920Z,81.52
2019-05-30T03:13:35.019Z,82.06
2019-05-30T03:16:04.427Z,82.67
2019-05-30T03:18:31.376Z,82.89
2019-05-30T03:20:58.435Z,83.10
2019-05-30T03:23:26.373Z,82.99
2019-05-30T03:25:53.651Z,82.81
2019-05-30T03:28:20.927Z,82.79
2019-05-30T03:30:48.383Z,82.63
2019-05-30T03:33:36.178Z,82.87
2019-05-30T03:35:44.991Z,82.89
2019-05-30T03:38:13.507Z,82.90
2019-05-30T03:40:41.452Z,82.75
2019-05-30T03:43:09.325Z,82.10
2019-05-30T03:45:39.528Z,81.65
2019-05-30T03:48:12.247Z,81.29
2019-05-30T03:50:43.269Z,81.16
2019-05-30T03:53:14.327Z,81.15
2019-05-30T03:55:46.219Z,81.05
2019-05-30T03:58:20.968Z,80.87
2019-05-30T04:00:53.964Z,80.41
2019-05-30T04:03:48.560Z,79.78
2019-05-30T04:06:25.014Z,78.68
2019-05-30T04:08:57.322Z,78.14
2019-05-30T04:11:33.075Z,77.78
2019-05-30T04:14:03.082Z,76.78
2019-05-30T04:16:33.235Z,75.44
2019-05-30T04:19:00.533Z,74.45
2019-05-30T04:21:27.726Z,73.40
2019-05-30T04:23:55.028Z,72.41
2019-05-30T04:26:22.228Z,71.13
2019-05-30T04:28:49.416Z,70.00
2019-05-30T04:31:17.674Z,68.22
2019-05-30T04:33:45.772Z,58.88
2019-05-30T04:36:14.404Z,53.16
2019-05-30T04:38:41.886Z,47.03
2019-05-30T04:41:09.080Z,42.51
2019-05-30T04:43:36.234Z,41.53
2019-05-30T04:46:03.414Z,40.20
2019-05-30T04:48:30.612Z,39.25
2019-05-30T04:50:57.678Z,36.58
2019-05-30T04:53:24.903Z,35.36
2019-05-30T04:55:52.294Z,35.02
2019-05-30T04:58:21.881Z,33.08
2019-05-30T05:00:48.577Z,31.73
2019-05-30T05:03:19.074Z,30.46
2019-05-30T05:05:44.793Z,29.01
2019-05-30T05:08:11.974Z,27.87
2019-05-30T05:10:39.488Z,27.11
2019-05-30T05:13:06.651Z,26.79
2019-05-30T05:15:33.825Z,25.63
2019-05-30T05:18:00.919Z,24.80
2019-05-30T05:20:28.201Z,23.39
2019-05-30T05:22:55.626Z,22.30
2019-05-30T05:25:23.604Z,21.43
2019-05-30T05:27:50.820Z,20.24
2019-05-30T05:30:20.138Z,19.29
2019-05-30T05:32:47.318Z,18.10
2019-05-30T05:35:14.825Z,17.47
2019-05-30T05:37:41.959Z,17.27
2019-05-30T05:40:09.647Z,17.21
2019-05-30T05:42:36.819Z,16.81
2019-05-30T05:45:04.908Z,16.58
2019-05-30T05:47:32.221Z,16.03
2019-05-30T05:49:59.420Z,15.88
2019-05-30T05:52:26.616Z,16.01
2019-05-30T05:54:53.823Z,15.79
2019-05-30T05:57:21.090Z,15.96
2019-05-30T05:59:48.299Z,15.54
2019-05-30T06:02:17.481Z,15.17
2019-05-30T06:04:56.639Z,14.18
2019-05-30T06:13:45.557Z,15.26
2019-05-30T06:16:12.785Z,15.73
2019-05-30T06:21:53.529Z,16.45
2019-05-30T06:24:21.475Z,15.59
2019-05-30T06:35:38.376Z,13.73
2019-05-30T06:38:05.557Z,12.91
2019-05-30T06:43:34.198Z,13.30
2019-05-30T06:46:13.544Z,13.96
2019-05-30T06:52:06.694Z,13.26
2019-05-30T06:54:33.882Z,12.84
2019-05-30T06:57:21.172Z,12.39
2019-05-30T06:59:48.389Z,11.40
2019-05-30T07:02:15.644Z,11.81
2019-05-30T07:04:51.418Z,11.47
2019-05-30T07:07:22.615Z,10.88
2019-05-30T07:10:08.101Z,10.76
2019-05-30T07:12:54.886Z,10.00
2019-05-30T07:15:23.096Z,10.00
2019-05-30T07:21:21.353Z,10.68
2019-05-30T07:23:48.557Z,11.99
2019-05-30T07:29:29.993Z,11.55
2019-05-30T07:31:57.230Z,10.12
2019-05-30T07:35:07.249Z,9.81
2019-05-30T07:37:54.107Z,9.40
2019-05-30T07:41:02.170Z,8.20
2019-05-30T07:46:42.710Z,9.53
2019-05-30T07:49:09.927Z,9.97
2019-05-30T07:51:37.151Z,9.53
2019-05-30T07:57:20.391Z,9.24
2019-05-30T07:59:47.572Z,8.70
2019-05-30T08:02:27.539Z,8.05
2019-05-30T08:04:54.719Z,7.80
2019-05-30T08:07:21.921Z,7.62
2019-05-30T08:12:30.095Z,7.62
2019-05-30T08:15:48.831Z,6.82
2019-05-30T08:18:48.134Z,7.22
2019-05-30T08:21:15.336Z,9.91
2019-05-30T08:23:42.548Z,10.23
2019-05-30T08:26:30.030Z,10.18
2019-05-30T08:44:15.221Z,10.81
2019-05-30T08:46:42.443Z,11.44
2019-05-30T08:49:09.639Z,12.72
2019-05-30T08:51:36.890Z,13.87
2019-05-30T08:54:04.109Z,15.43
2019-05-30T08:56:32.915Z,16.09
2019-05-30T08:59:06.626Z,16.78
2019-05-30T09:07:36.514Z,19.54
2019-05-30T09:13:23.976Z,19.21
2019-05-30T09:16:31.989Z,19.13
2019-05-30T09:18:59.215Z,18.24
2019-05-30T09:27:28.376Z,18.58
2019-05-30T09:30:07.807Z,18.23
2019-05-30T09:32:47.240Z,17.55
2019-05-30T09:41:17.191Z,19.29
2019-05-30T09:46:37.207Z,20.50
2019-05-30T09:49:24.224Z,22.01
2019-05-30T09:51:51.458Z,25.77
2019-05-30T10:03:11.749Z,27.02
2019-05-30T10:06:28.959Z,25.68
2019-05-30T10:11:56.865Z,24.37
2019-05-30T10:14:23.965Z,24.97
2019-05-30T10:16:54.975Z,23.70
2019-05-30T10:19:40.496Z,24.33
2019-05-30T10:22:20.034Z,25.21
2019-05-30T10:27:27.349Z,25.33
2019-05-30T10:30:06.624Z,24.49
2019-05-30T10:32:33.876Z,24.72
2019-05-30T10:35:01.085Z,24.67
2019-05-30T10:37:50.779Z,24.70
2019-05-30T10:41:05.922Z,25.01
2019-05-30T10:46:34.683Z,26.35
2019-05-30T10:49:01.898Z,24.81
2019-05-30T10:51:29.463Z,23.95
2019-05-30T10:54:37.678Z,23.94
2019-05-30T10:57:05.137Z,23.68
2019-05-30T11:00:13.252Z,22.89
2019-05-30T11:02:40.837Z,22.55
2019-05-30T11:05:48.892Z,22.45
2019-05-30T11:11:37.105Z,24.85
2019-05-30T11:14:04.638Z,26.19
2019-05-30T11:16:31.819Z,26.25
2019-05-30T11:18:59.035Z,25.83
2019-05-30T11:21:26.242Z,25.34
2019-05-30T11:23:54.398Z,25.90
2019-05-30T11:26:28.845Z,26.78
2019-05-30T11:28:56.779Z,28.56
2019-05-30T11:34:25.952Z,31.35
2019-05-30T11:39:46.065Z,31.00
2019-05-30T11:42:13.271Z,30.65
2019-05-30T11:44:40.429Z,30.17
2019-05-30T11:59:13.083Z,23.63
2019-05-30T12:02:00.505Z,23.21
2019-05-30T12:04:35.933Z,22.69
2019-05-30T12:07:03.174Z,22.13
2019-05-30T12:09:30.280Z,21.87
2019-05-30T12:11:57.541Z,21.87
2019-05-30T12:14:24.610Z,21.11
2019-05-30T12:16:53.103Z,21.47
2019-05-30T12:19:40.782Z,21.66
2019-05-30T12:22:19.839Z,21.50
2019-05-30T12:24:47.265Z,21.87
2019-05-30T12:27:56.048Z,21.81
2019-05-30T12:30:54.981Z,22.28
2019-05-30T12:36:54.841Z,24.31
2019-05-30T12:39:22.325Z,25.16
2019-05-30T12:41:49.978Z,26.20
2019-05-30T12:44:17.277Z,26.18
2019-05-30T12:46:44.455Z,26.31
2019-05-30T12:49:11.677Z,26.33
2019-05-30T12:51:38.913Z,26.53
2019-05-30T12:54:06.834Z,26.58
2019-05-30T12:57:04.481Z,26.29
2019-05-30T13:03:07.290Z,25.77
2019-05-30T13:05:41.864Z,26.24
2019-05-30T13:11:10.218Z,26.10
2019-05-30T13:14:18.228Z,25.81
2019-05-30T13:19:47.008Z,26.08
2019-05-30T13:22:14.452Z,25.92
2019-05-30T13:24:42.117Z,25.68
2019-05-30T13:27:09.281Z,25.39
2019-05-30T13:29:36.787Z,25.20
2019-05-30T13:35:45.946Z,25.32
2019-05-30T13:38:25.644Z,25.14
2019-05-30T13:44:44.828Z,25.32
2019-05-30T13:47:12.022Z,25.68
2019-05-30T13:49:39.213Z,26.14
2019-05-30T13:52:29.289Z,26.94
2019-05-30T13:54:56.454Z,27.64
2019-05-30T13:57:25.476Z,28.04
2019-05-30T13:59:53.105Z,27.49
2019-05-30T14:02:20.296Z,27.78
2019-05-30T14:04:47.467Z,27.74
2019-05-30T14:07:14.706Z,26.97
2019-05-30T14:10:02.404Z,27.69
2019-05-30T14:12:36.858Z,27.40
2019-05-30T14:21:39.263Z,27.65
2019-05-30T14:24:18.737Z,27.60
2019-05-30T14:27:05.515Z,27.92
2019-05-30T14:29:32.724Z,27.89
2019-05-30T14:32:00.325Z,27.66
2019-05-30T14:41:01.037Z,27.71
2019-05-30T14:43:28.542Z,27.64
2019-05-30T14:45:55.606Z,28.31
2019-05-30T14:48:22.831Z,29.31
2019-05-30T14:50:49.934Z,29.61
2019-05-30T14:53:17.194Z,29.71
2019-05-30T14:55:44.720Z,29.57
2019-05-30T14:58:13.221Z,29.48
2019-05-30T15:01:41.702Z,29.45
2019-05-30T15:04:09.192Z,29.23
2019-05-30T15:07:38.581Z,29.04
2019-05-30T15:13:26.068Z,29.89
2019-05-30T15:15:53.237Z,30.37
2019-05-30T15:18:32.123Z,31.45
2019-05-30T15:20:59.219Z,31.76
2019-05-30T15:24:07.698Z,31.70
2019-05-30T15:30:08.387Z,31.89
2019-05-30T15:32:35.562Z,32.54
2019-05-30T15:38:02.325Z,32.99
2019-05-30T15:40:31.286Z,33.19
2019-05-30T15:42:58.440Z,33.24
2019-05-30T15:46:07.761Z,33.81
2019-05-30T15:48:55.458Z,34.01
2019-05-30T15:51:22.690Z,34.60
2019-05-30T15:57:24.339Z,35.36
2019-05-30T16:03:04.633Z,35.98
2019-05-30T16:08:32.122Z,36.31
2019-05-30T16:10:59.223Z,36.28
2019-05-30T16:16:47.227Z,36.22
2019-05-30T16:19:20.177Z,36.92
2019-05-30T16:22:33.781Z,37.02
2019-05-30T16:28:34.484Z,37.96
2019-05-30T16:31:13.766Z,36.77
2019-05-30T16:33:41.140Z,36.96
2019-05-30T16:36:08.418Z,37.33
2019-05-30T16:38:35.558Z,36.80
2019-05-30T16:41:43.622Z,37.21
2019-05-30T16:44:10.821Z,38.10
2019-05-30T16:46:38.064Z,39.37
2019-05-30T16:49:05.314Z,40.09
2019-05-30T16:51:32.539Z,39.66
2019-05-30T16:54:11.999Z,39.93
2019-05-30T16:56:58.660Z,40.49
2019-05-30T16:59:26.896Z,40.47
2019-05-30T17:05:57.535Z,41.85
2019-05-30T17:08:37.365Z,42.11
2019-05-30T17:13:44.652Z,42.55
2019-05-30T17:16:31.359Z,43.03
2019-05-30T17:18:58.900Z,43.48
2019-05-30T17:21:26.777Z,43.39
2019-05-30T17:24:15.013Z,43.70
2019-05-30T17:26:42.239Z,44.18
2019-05-30T17:29:09.488Z,44.32
2019-05-30T17:32:10.432Z,44.56
2019-05-30T17:34:37.641Z,44.67
2019-05-30T17:37:04.815Z,44.38
2019-05-30T17:39:51.581Z,44.50
2019-05-30T17:42:59.588Z,44.50
2019-05-30T17:45:27.309Z,44.88
2019-05-30T17:48:56.595Z,45.33
2019-05-30T17:51:43.599Z,44.82
2019-05-30T17:57:38.726Z,45.65
2019-05-30T18:00:47.089Z,45.75
2019-05-30T18:03:34.237Z,45.77
2019-05-30T18:06:13.605Z,45.73
2019-05-30T18:11:34.727Z,46.09
2019-05-30T18:14:02.253Z,45.78
2019-05-30T18:19:10.807Z,46.03
2019-05-30T18:21:50.534Z,46.67
2019-05-30T18:24:18.172Z,47.21
2019-05-30T18:27:04.813Z,47.39
2019-05-30T18:29:32.315Z,47.85
2019-05-30T18:32:40.485Z,47.68
2019-05-30T18:35:48.470Z,48.29
2019-05-30T18:38:35.116Z,48.72
2019-05-30T18:44:17.493Z,50.55
2019-05-30T18:46:44.752Z,50.51
2019-05-30T18:49:11.964Z,50.94
2019-05-30T18:54:53.786Z,51.21
2019-05-30T18:57:40.465Z,51.42
2019-05-30T19:00:48.622Z,51.86
2019-05-30T19:03:16.061Z,52.11
2019-05-30T19:06:25.552Z,52.14
2019-05-30T19:09:13.083Z,52.49
2019-05-30T19:15:05.729Z,53.33
2019-05-30T19:17:52.407Z,53.73
2019-05-30T19:23:20.497Z,54.25
2019-05-30T19:25:48.139Z,53.88
2019-05-30T19:28:15.425Z,54.12
2019-05-30T19:30:42.683Z,54.13
2019-05-30T19:33:29.356Z,54.03
2019-05-30T19:35:56.640Z,54.09
2019-05-30T19:38:23.816Z,54.32
2019-05-30T19:41:46.002Z,54.59
2019-05-30T19:44:20.773Z,54.95
2019-05-30T19:47:30.237Z,55.37
2019-05-30T19:53:39.163Z,55.96
2019-05-30T19:56:13.216Z,56.25
2019-05-30T20:01:34.418Z,56.55
2019-05-30T20:04:01.873Z,56.81
2019-05-30T20:06:32.423Z,56.82
2019-05-30T20:09:07.452Z,56.97
2019-05-30T20:11:35.254Z,56.95
2019-05-30T20:14:35.120Z,57.22
2019-05-30T20:17:02.621Z,57.41
2019-05-30T20:19:29.718Z,57.76
2019-05-30T20:21:57.107Z,58.04
2019-05-30T20:24:24.346Z,57.86
2019-05-30T20:26:51.562Z,58.02
2019-05-30T20:29:19.016Z,57.89
2019-05-30T20:31:47.046Z,57.90
2019-05-30T20:34:14.284Z,57.85
2019-05-30T20:36:42.664Z,57.77
2019-05-30T20:39:09.973Z,57.65
2019-05-30T20:41:37.181Z,57.79
2019-05-30T20:44:04.541Z,57.15
2019-05-30T20:46:31.714Z,57.04
2019-05-30T20:48:58.914Z,57.48
2019-05-30T20:51:26.220Z,58.03
2019-05-30T20:53:54.907Z,58.52
2019-05-30T20:56:22.149Z,59.12
2019-05-30T20:58:49.401Z,59.87
2019-05-30T21:01:16.634Z,59.83
2019-05-30T21:03:43.971Z,59.89
2019-05-30T21:06:12.844Z,59.99
2019-05-30T21:08:41.283Z,59.95
2019-05-30T21:11:10.305Z,60.02
2019-05-30T21:13:40.237Z,60.03
2019-05-30T21:16:09.071Z,60.00
2019-05-30T21:18:36.264Z,60.27
2019-05-30T21:21:03.485Z,60.22
2019-05-30T21:23:30.722Z,60.46
2019-05-30T21:25:57.907Z,60.49
2019-05-30T21:28:25.248Z,60.27
2019-05-30T21:30:52.422Z,60.43
2019-05-30T21:33:20.196Z,60.11
2019-05-30T21:35:48.104Z,60.27
2019-05-30T21:38:15.560Z,60.35
2019-05-30T21:40:42.766Z,60.46
2019-05-30T21:43:09.883Z,60.48
2019-05-30T21:45:38.262Z,60.61
2019-05-30T21:48:05.949Z,60.77
2019-05-30T21:50:33.281Z,60.88
2019-05-30T21:53:00.455Z,61.18
2019-05-30T21:55:27.679Z,61.36
2019-05-30T21:57:54.913Z,61.56
2019-05-30T22:01:01.772Z,61.83
2019-05-30T22:03:29.209Z,62.17
2019-05-30T22:05:56.666Z,62.33
2019-05-30T22:08:23.836Z,62.15
2019-05-30T22:10:51.762Z,62.11
2019-05-30T22:13:19.537Z,62.48
2019-05-30T22:15:48.181Z,62.75
2019-05-30T22:18:15.602Z,62.92
2019-05-30T22:20:43.727Z,63.16
2019-05-30T22:23:11.222Z,63.00
2019-05-30T22:25:38.492Z,62.94
2019-05-30T22:28:05.974Z,63.24
2019-05-30T22:30:33.524Z,63.22
2019-05-30T22:33:00.746Z,63.79
2019-05-30T22:35:27.911Z,63.94
2019-05-30T22:37:55.079Z,64.01
2019-05-30T22:40:22.263Z,64.30
2019-05-30T22:42:50.175Z,64.50
2019-05-30T22:45:17.402Z,64.64
2019-05-30T22:47:44.523Z,64.77
2019-05-30T22:50:11.952Z,64.86
2019-05-30T22:52:40.151Z,65.07
2019-05-30T22:55:07.563Z,65.33
2019-05-30T22:57:34.698Z,65.52
2019-05-30T23:00:02.191Z,65.78
2019-05-30T23:02:29.835Z,65.85
2019-05-30T23:04:56.946Z,66.11
2019-05-30T23:07:24.502Z,66.16
2019-05-30T23:09:52.267Z,66.52
2019-05-30T23:12:19.834Z,66.99
2019-05-30T23:14:48.018Z,67.55
2019-05-30T23:17:15.520Z,68.04
2019-05-30T23:19:42.792Z,68.41
2019-05-30T23:22:10.173Z,68.70
2019-05-30T23:24:37.486Z,69.16
2019-05-30T23:27:08.155Z,69.54
2019-05-30T23:29:34.023Z,69.75
2019-05-30T23:32:01.484Z,69.83
2019-05-30T23:34:28.666Z,70.08
2019-05-30T23:36:56.697Z,70.24
2019-05-30T23:39:24.128Z,70.67
2019-05-30T23:41:51.320Z,70.97
2019-05-30T23:44:19.040Z,71.46
2019-05-30T23:46:46.797Z,71.60
2019-05-30T23:49:13.941Z,71.48
2019-05-30T23:51:41.103Z,71.23
2019-05-30T23:54:08.332Z,71.39
2019-05-30T23:56:35.477Z,71.28
2019-05-30T23:59:02.635Z,71.34
